createdAt,value
2019-04-21T00:02:31.993Z,100488.00
2019-04-21T00:05:16.484Z,100487.55
2019-04-21T00:07:49.452Z,100479.24
2019-04-21T00:10:18.696Z,100480.48
2019-04-21T00:12:40.611Z,100480.72
2019-04-21T00:15:09.692Z,100474.87
2019-04-21T00:17:29.917Z,100474.48
2019-04-21T00:20:12.701Z,100473.27
2019-04-21T00:22:41.281Z,100469.05
2019-04-21T00:25:16.358Z,100462.98
2019-04-21T00:27:47.431Z,100468.14
2019-04-21T00:30:22.756Z,100457.32
2019-04-21T00:32:41.555Z,100451.39
2019-04-21T00:35:08.267Z,100449.48
2019-04-21T00:37:53.379Z,100455.48
2019-04-21T00:40:22.272Z,100449.44
2019-04-21T00:42:51.615Z,100449.81
2019-04-21T00:45:18.226Z,100449.69
2019-04-21T00:47:58.726Z,100450.03
2019-04-21T00:50:34.294Z,100448.59
2019-04-21T00:53:05.676Z,100450.25
2019-04-21T00:55:44.444Z,100454.27
2019-04-21T00:58:18.210Z,100450.85
2019-04-21T01:00:46.234Z,100443.33
2019-04-21T01:03:14.427Z,100438.91
2019-04-21T01:05:46.902Z,100441.91
2019-04-21T01:08:13.270Z,100438.80
2019-04-21T01:10:34.665Z,100444.95
2019-04-21T01:13:23.574Z,100440.52
2019-04-21T01:15:51.390Z,100434.02
2019-04-21T01:18:16.854Z,100434.11
2019-04-21T01:20:24.277Z,100434.95
2019-04-21T01:22:53.630Z,100435.01
2019-04-21T01:25:30.274Z,100434.84
2019-04-21T01:28:11.590Z,100432.40
2019-04-21T01:30:40.590Z,100436.72
2019-04-21T01:33:17.765Z,100436.55
2019-04-21T01:35:46.800Z,100430.84
2019-04-21T01:38:35.824Z,100438.77
2019-04-21T01:40:49.261Z,100428.25
2019-04-21T01:43:14.836Z,100436.02
2019-04-21T01:45:45.844Z,100435.22
2019-04-21T01:48:13.082Z,100426.37
2019-04-21T01:50:40.954Z,100419.55
2019-04-21T01:53:24.823Z,100420.56
2019-04-21T01:56:11.726Z,100422.23
2019-04-21T01:58:34.167Z,100422.57
2019-04-21T02:01:10.222Z,100427.20
2019-04-21T02:03:52.799Z,100417.86
2019-04-21T02:06:17.061Z,100420.81
2019-04-21T02:08:44.768Z,100413.79
2019-04-21T02:11:16.913Z,100415.25
2019-04-21T02:13:53.495Z,100410.67
2019-04-21T02:16:21.508Z,100410.05
2019-04-21T02:18:52.938Z,100412.38
2019-04-21T02:21:15.611Z,100413.42
2019-04-21T02:23:55.795Z,100414.42
2019-04-21T02:26:23.165Z,100406.05
2019-04-21T02:28:58.580Z,100408.54
2019-04-21T02:31:39.519Z,100403.14
2019-04-21T02:41:43.433Z,100383.48
2019-04-21T02:46:40.098Z,100387.62
2019-04-21T02:49:13.282Z,100379.92
2019-04-21T02:52:09.196Z,100381.09
2019-04-21T03:02:00.929Z,100369.64
2019-04-21T03:04:47.159Z,100368.19
2019-04-21T03:09:49.523Z,100356.87
2019-04-21T03:12:38.095Z,100348.34
2019-04-21T03:17:35.882Z,100345.08
2019-04-21T03:22:24.636Z,100342.47
2019-04-21T03:29:59.434Z,100339.67
2019-04-21T03:33:13.107Z,100341.16
2019-04-21T03:35:34.435Z,100346.23
2019-04-21T03:37:30.856Z,100339.53
2019-04-21T03:40:05.256Z,100338.89
2019-04-21T03:42:34.874Z,100341.34
2019-04-21T03:45:03.308Z,100339.88
2019-04-21T03:52:42.301Z,100338.75
2019-04-21T04:01:00.475Z,100330.09
2019-04-21T04:09:45.043Z,100325.36
2019-04-21T04:11:58.052Z,100320.61
2019-04-21T04:14:40.493Z,100319.13
2019-04-21T04:17:11.838Z,100318.48
2019-04-21T04:22:24.868Z,100321.95
2019-04-21T04:27:08.102Z,100330.31
2019-04-21T04:29:31.758Z,100329.34
2019-04-21T04:34:41.204Z,100323.59
2019-04-21T04:37:12.251Z,100323.95
2019-04-21T04:39:48.526Z,100321.33
2019-04-21T04:42:30.731Z,100318.20
2019-04-21T04:45:05.698Z,100320.18
2019-04-21T04:49:51.954Z,100319.85
2019-04-21T04:52:32.526Z,100318.89
2019-04-21T04:55:01.239Z,100325.09
2019-04-21T04:57:39.565Z,100321.33
2019-04-21T05:02:33.357Z,100324.13
2019-04-21T05:05:07.054Z,100316.26
2019-04-21T05:07:36.714Z,100320.19
2019-04-21T05:12:38.815Z,100319.35
2019-04-21T05:15:04.491Z,100318.22
2019-04-21T05:22:33.619Z,100325.90
2019-04-21T05:24:44.199Z,100323.28
2019-04-21T05:27:35.001Z,100318.50
2019-04-21T05:30:23.298Z,100322.94
2019-04-21T05:33:09.706Z,100319.30
2019-04-21T05:35:49.319Z,100319.77
2019-04-21T05:38:27.270Z,100323.34
2019-04-21T05:40:55.226Z,100326.30
2019-04-21T05:43:32.484Z,100327.08
2019-04-21T05:46:07.040Z,100328.67
2019-04-21T05:48:45.477Z,100331.95
2019-04-21T05:51:18.816Z,100327.65
2019-04-21T05:53:49.289Z,100326.74
2019-04-21T05:56:17.325Z,100335.70
2019-04-21T05:58:55.437Z,100332.00
2019-04-21T06:01:23.780Z,100338.00
2019-04-21T06:03:54.946Z,100331.66
2019-04-21T06:08:49.428Z,100331.11
2019-04-21T06:11:29.012Z,100330.32
2019-04-21T06:14:08.314Z,100329.40
2019-04-21T06:16:30.237Z,100323.45
2019-04-21T06:21:28.185Z,100330.17
2019-04-21T06:23:57.809Z,100326.83
2019-04-21T06:26:50.549Z,100321.79
2019-04-21T06:29:09.152Z,100325.33
2019-04-21T06:31:49.880Z,100320.88
2019-04-21T06:34:00.141Z,100320.66
2019-04-21T06:36:45.075Z,100314.23
2019-04-21T06:39:17.815Z,100314.58
2019-04-21T06:41:54.369Z,100304.58
2019-04-21T06:44:12.875Z,100306.62
2019-04-21T06:46:53.277Z,100313.97
2019-04-21T06:49:08.129Z,100311.28
2019-04-21T06:51:45.316Z,100310.75
2019-04-21T06:54:16.016Z,100311.94
2019-04-21T06:57:23.116Z,100307.56
2019-04-21T06:59:09.617Z,100299.74
2019-04-21T07:01:43.912Z,100315.19
2019-04-21T07:04:21.031Z,100308.77
2019-04-21T07:11:41.247Z,100308.00
2019-04-21T07:14:27.208Z,100310.73
2019-04-21T07:16:49.083Z,100313.02
2019-04-21T07:19:27.861Z,100319.03
2019-04-21T07:21:46.764Z,100320.95
2019-04-21T07:24:21.662Z,100314.64
2019-04-21T07:26:45.892Z,100316.56
2019-04-21T07:31:54.115Z,100315.50
2019-04-21T07:34:21.393Z,100309.46
2019-04-21T07:36:52.615Z,100304.05
2019-04-21T07:39:10.319Z,100300.14
2019-04-21T07:41:38.528Z,100298.73
2019-04-21T07:44:05.683Z,100297.77
2019-04-21T07:46:37.264Z,100300.83
2019-04-21T07:49:44.660Z,100291.02
2019-04-21T07:52:28.633Z,100294.37
2019-04-21T07:55:07.996Z,100287.87
2019-04-21T07:57:26.035Z,100294.17
2019-04-21T08:00:06.538Z,100285.87
2019-04-21T08:02:30.733Z,100283.97
2019-04-21T08:05:04.156Z,100279.20
2019-04-21T08:07:39.413Z,100283.73
2019-04-21T08:09:51.445Z,100285.59
2019-04-21T08:12:20.392Z,100285.41
2019-04-21T08:15:05.965Z,100282.02
2019-04-21T08:17:25.652Z,100282.72
2019-04-21T08:19:53.895Z,100278.16
2019-04-21T08:22:29.166Z,100276.90
2019-04-21T08:24:59.437Z,100282.61
2019-04-21T08:27:25.708Z,100279.05
2019-04-21T08:29:59.586Z,100274.90
2019-04-21T08:32:36.290Z,100275.34
2019-04-21T08:35:14.353Z,100271.34
2019-04-21T08:37:26.053Z,100270.24
2019-04-21T08:40:04.991Z,100266.66
2019-04-21T08:42:27.058Z,100263.05
2019-04-21T08:45:00.615Z,100262.59
2019-04-21T08:47:25.515Z,100254.41
2019-04-21T08:49:53.846Z,100255.55
2019-04-21T08:55:03.413Z,100246.35
2019-04-21T08:58:03.948Z,100242.72
2019-04-21T09:00:38.872Z,100238.18
2019-04-21T09:03:28.571Z,100233.89
2019-04-21T09:05:42.450Z,100235.90
2019-04-21T09:08:13.770Z,100227.66
2019-04-21T09:10:42.222Z,100229.03
2019-04-21T09:13:13.007Z,100228.48
2019-04-21T09:15:43.053Z,100221.73
2019-04-21T09:18:08.818Z,100213.34
2019-04-21T09:20:47.436Z,100216.48
2019-04-21T09:23:13.117Z,100206.41
2019-04-21T09:25:46.800Z,100198.76
2019-04-21T09:28:13.452Z,100196.69
2019-04-21T09:30:24.590Z,100194.34
2019-04-21T09:32:56.849Z,100188.71
2019-04-21T09:35:24.193Z,100185.54
2019-04-21T09:38:00.338Z,100190.89
2019-04-21T09:40:30.100Z,100176.47
2019-04-21T09:42:59.299Z,100174.14
2019-04-21T09:45:24.433Z,100174.81
2019-04-21T09:48:01.090Z,100170.67
2019-04-21T09:50:24.267Z,100161.83
2019-04-21T09:52:58.100Z,100161.23
2019-04-21T09:55:25.032Z,100155.48
2019-04-21T09:57:57.699Z,100151.05
2019-04-21T10:00:27.191Z,100148.55
2019-04-21T10:03:00.831Z,100145.87
2019-04-21T10:05:25.172Z,100142.22
2019-04-21T10:07:55.295Z,100133.88
2019-04-21T10:10:23.427Z,100135.76
2019-04-21T10:12:52.100Z,100131.47
2019-04-21T10:15:23.278Z,100122.78
2019-04-21T10:17:58.013Z,100120.11
2019-04-21T10:20:26.912Z,100113.88
2019-04-21T10:22:55.313Z,100112.16
2019-04-21T10:25:24.986Z,100108.19
2019-04-21T10:27:54.976Z,100099.89
2019-04-21T10:30:24.479Z,100097.75
2019-04-21T10:32:52.742Z,100092.33
2019-04-21T10:35:21.853Z,100085.49
2019-04-21T10:38:03.342Z,100085.10
2019-04-21T10:40:23.515Z,100081.95
2019-04-21T10:42:52.264Z,100077.94
2019-04-21T10:45:21.177Z,100069.84
2019-04-21T10:47:49.433Z,100063.73
2019-04-21T10:50:18.395Z,100060.66
2019-04-21T10:53:21.076Z,100053.02
2019-04-21T10:56:04.196Z,100055.38
2019-04-21T10:58:26.673Z,100047.99
2019-04-21T11:01:02.078Z,100043.27
2019-04-21T11:03:38.339Z,100035.78
2019-04-21T11:06:08.503Z,100031.14
2019-04-21T11:08:41.486Z,100029.19
2019-04-21T11:11:07.978Z,100027.85
2019-04-21T11:13:38.721Z,100019.40
2019-04-21T11:16:07.309Z,100013.97
2019-04-21T11:18:37.789Z,100014.67
2019-04-21T11:21:07.014Z,100010.13
2019-04-21T11:23:35.414Z,100007.14
2019-04-21T11:26:04.397Z,100008.86
2019-04-21T11:28:32.637Z,100000.44
2019-04-21T11:31:00.711Z,99999.28
2019-04-21T11:33:29.057Z,99998.00
2019-04-21T11:35:57.570Z,99982.51
2019-04-21T11:39:09.924Z,99986.44
2019-04-21T11:41:25.636Z,99982.80
2019-04-21T11:43:57.240Z,99977.80
2019-04-21T11:46:26.768Z,99973.48
2019-04-21T11:48:55.071Z,99969.31
2019-04-21T11:51:23.173Z,99967.47
2019-04-21T11:53:51.337Z,99963.78
2019-04-21T11:56:21.357Z,99958.64
2019-04-21T11:58:49.953Z,99963.84
2019-04-21T12:01:19.361Z,99954.98
2019-04-21T12:03:47.613Z,99954.63
2019-04-21T12:06:15.801Z,99952.98
2019-04-21T12:08:47.625Z,99947.35
2019-04-21T12:11:15.733Z,99948.69
2019-04-21T12:13:44.115Z,99947.44
2019-04-21T12:16:12.979Z,99941.36
2019-04-21T12:18:41.269Z,99939.52
2019-04-21T12:21:09.458Z,99941.22
2019-04-21T12:23:38.477Z,99936.69
2019-04-21T12:26:09.266Z,99933.68
2019-04-21T12:28:37.716Z,99932.14
2019-04-21T12:31:27.636Z,99921.85
2019-04-21T12:33:58.529Z,99919.52
2019-04-21T12:36:27.566Z,99920.38
2019-04-21T12:39:01.413Z,99915.91
2019-04-21T12:41:28.773Z,99910.63
2019-04-21T12:43:57.044Z,99909.13
2019-04-21T12:46:25.701Z,99905.62
2019-04-21T12:48:54.086Z,99899.73
2019-04-21T12:51:22.114Z,99897.25
2019-04-21T12:53:51.777Z,99895.67
2019-04-21T12:56:21.641Z,99889.70
2019-04-21T12:58:51.244Z,99883.71
2019-04-21T13:01:20.693Z,99883.95
2019-04-21T13:03:50.013Z,99878.84
2019-04-21T13:06:19.533Z,99886.93
2019-04-21T13:08:54.501Z,99877.33
2019-04-21T13:11:19.110Z,99866.77
2019-04-21T13:13:48.154Z,99862.28
2019-04-21T13:16:16.646Z,99851.09
2019-04-21T13:18:45.082Z,99849.59
2019-04-21T13:21:14.042Z,99845.92
2019-04-21T13:23:42.987Z,99845.30
2019-04-21T13:26:13.079Z,99841.48
2019-04-21T13:28:42.585Z,99845.67
2019-04-21T13:31:11.856Z,99835.53
2019-04-21T13:33:40.190Z,99828.74
2019-04-21T13:36:09.598Z,99827.09
2019-04-21T13:38:57.169Z,99820.45
2019-04-21T13:41:32.704Z,99831.11
2019-04-21T13:44:08.931Z,99817.25
2019-04-21T13:46:38.597Z,99814.34
2019-04-21T13:49:07.467Z,99812.45
2019-04-21T13:51:38.203Z,99804.16
2019-04-21T13:54:07.360Z,99802.00
2019-04-21T13:56:36.338Z,99798.67
2019-04-21T13:59:06.499Z,99792.98
2019-04-21T14:01:35.918Z,99784.76
2019-04-21T14:04:05.288Z,99778.52
2019-04-21T14:06:34.292Z,99780.16
2019-04-21T14:09:07.698Z,99772.69
2019-04-21T14:11:37.598Z,99775.73
2019-04-21T14:14:06.079Z,99771.73
2019-04-21T14:16:36.058Z,99768.00
2019-04-21T14:19:05.527Z,99764.09
2019-04-21T14:21:33.841Z,99765.09
2019-04-21T14:24:02.162Z,99761.14
2019-04-21T14:26:32.154Z,99752.88
2019-04-21T14:29:01.491Z,99750.86
2019-04-21T14:31:30.801Z,99752.78
2019-04-21T14:33:59.681Z,99749.42
2019-04-21T14:36:28.666Z,99747.36
2019-04-21T14:38:58.741Z,99740.75
2019-04-21T14:41:28.337Z,99739.39
2019-04-21T14:43:58.501Z,99735.13
2019-04-21T14:46:33.122Z,99733.87
2019-04-21T14:49:17.366Z,99724.39
2019-04-21T14:52:03.132Z,99726.86
2019-04-21T14:54:50.838Z,99722.02
2019-04-21T14:57:19.129Z,99722.30
2019-04-21T14:59:48.961Z,99714.55
2019-04-21T15:02:18.085Z,99713.64
2019-04-21T15:04:46.255Z,99708.06
2019-04-21T15:07:15.057Z,99710.17
2019-04-21T15:09:44.619Z,99708.89
2019-04-21T15:12:14.026Z,99710.31
2019-04-21T15:14:42.344Z,99708.94
2019-04-21T15:17:12.523Z,99715.86
2019-04-21T15:19:49.498Z,99710.21
2019-04-21T15:22:12.476Z,99705.39
2019-04-21T15:24:42.653Z,99705.34
2019-04-21T15:27:10.778Z,99705.25
2019-04-21T15:29:40.407Z,99699.31
2019-04-21T15:32:08.718Z,99696.09
2019-04-21T15:34:38.218Z,99696.14
2019-04-21T15:37:06.484Z,99689.88
2019-04-21T15:39:34.492Z,99691.00
2019-04-21T15:42:02.807Z,99693.94
2019-04-21T15:44:32.420Z,99689.32
2019-04-21T15:47:01.942Z,99682.34
2019-04-21T15:49:58.162Z,99679.17
2019-04-21T15:52:20.077Z,99673.58
2019-04-21T15:54:48.565Z,99671.90
2019-04-21T15:57:24.218Z,99667.54
2019-04-21T16:00:00.465Z,99665.22
2019-04-21T16:02:42.597Z,99659.00
2019-04-21T16:05:12.994Z,99659.89
2019-04-21T16:07:42.378Z,99657.80
2019-04-21T16:10:13.490Z,99653.73
2019-04-21T16:12:41.497Z,99649.52
2019-04-21T16:15:12.472Z,99647.02
2019-04-21T16:17:41.409Z,99644.72
2019-04-21T16:20:10.369Z,99642.34
2019-04-21T16:22:38.890Z,99638.09
2019-04-21T16:25:10.654Z,99638.20
2019-04-21T16:27:39.450Z,99641.00
2019-04-21T16:30:10.044Z,99642.97
2019-04-21T16:32:38.462Z,99636.69
2019-04-21T16:35:10.712Z,99631.79
2019-04-21T16:37:39.512Z,99632.09
2019-04-21T16:40:09.596Z,99637.77
2019-04-21T16:42:38.462Z,99636.39
2019-04-21T16:45:10.500Z,99633.63
2019-04-21T16:47:39.883Z,99626.80
2019-04-21T16:50:09.859Z,99626.84
2019-04-21T16:52:45.925Z,99631.39
2019-04-21T16:55:33.172Z,99640.09
2019-04-21T16:58:23.419Z,99631.19
2019-04-21T17:01:01.718Z,99626.68
2019-04-21T17:03:26.643Z,99636.98
2019-04-21T17:05:56.273Z,99640.67
2019-04-21T17:08:24.409Z,99633.92
2019-04-21T17:11:03.033Z,99632.69
2019-04-21T17:13:24.575Z,99627.80
2019-04-21T17:16:15.298Z,99634.77
2019-04-21T17:18:43.539Z,99633.77
2019-04-21T17:21:00.974Z,99631.06
2019-04-21T17:23:27.348Z,99626.48
2019-04-21T17:25:57.178Z,99625.03
2019-04-21T17:28:25.779Z,99623.62
2019-04-21T17:30:54.650Z,99622.42
2019-04-21T17:33:26.867Z,99615.86
2019-04-21T17:35:53.163Z,99621.36
2019-04-21T17:38:23.892Z,99621.97
2019-04-21T17:40:53.747Z,99622.32
2019-04-21T17:43:23.635Z,99623.18
2019-04-21T17:45:53.131Z,99624.89
2019-04-21T17:48:21.873Z,99628.19
2019-04-21T17:50:59.673Z,99627.73
2019-04-21T17:53:43.839Z,99624.81
2019-04-21T17:56:33.848Z,99622.18
2019-04-21T17:58:56.697Z,99621.44
2019-04-21T18:01:35.881Z,99625.86
2019-04-21T18:04:03.597Z,99623.49
2019-04-21T18:07:01.804Z,99629.73
2019-04-21T18:09:44.033Z,99630.38
2019-04-21T18:12:07.759Z,99629.70
2019-04-21T18:14:20.734Z,99630.35
2019-04-21T18:16:51.645Z,99627.50
2019-04-21T18:19:26.131Z,99629.19
2019-04-21T18:22:10.779Z,99633.33
2019-04-21T18:24:50.192Z,99633.70
2019-04-21T18:27:13.613Z,99633.30
2019-04-21T18:29:42.359Z,99629.34
2019-04-21T18:32:10.604Z,99635.06
2019-04-21T18:35:11.531Z,99628.69
2019-04-21T18:38:13.289Z,99634.69
2019-04-21T18:40:42.831Z,99634.00
2019-04-21T18:43:48.594Z,99638.68
2019-04-21T18:46:31.444Z,99639.78
2019-04-21T18:48:48.778Z,99651.89
2019-04-21T18:51:45.128Z,99644.69
2019-04-21T18:54:31.513Z,99643.09
2019-04-21T18:56:52.418Z,99643.67
2019-04-21T18:59:10.110Z,99646.33
2019-04-21T19:01:39.986Z,99645.55
2019-04-21T19:04:16.864Z,99647.43
2019-04-21T19:06:54.533Z,99644.48
2019-04-21T19:09:35.896Z,99645.83
2019-04-21T19:12:00.749Z,99648.98
2019-04-21T19:14:43.079Z,99648.45
2019-04-21T19:17:29.160Z,99651.09
2019-04-21T19:19:49.040Z,99647.87
2019-04-21T19:22:21.685Z,99652.91
2019-04-21T19:24:54.448Z,99652.86
2019-04-21T19:27:11.959Z,99648.83
2019-04-21T19:29:50.721Z,99649.57
2019-04-21T19:32:08.413Z,99650.84
2019-04-21T19:34:25.765Z,99647.84
2019-04-21T19:37:00.743Z,99651.01
2019-04-21T19:39:39.326Z,99650.94
2019-04-21T19:42:03.111Z,99648.18
2019-04-21T19:44:45.516Z,99649.96
2019-04-21T19:47:11.570Z,99644.48
2019-04-21T19:49:45.754Z,99639.31
2019-04-21T19:52:02.933Z,99647.23
2019-04-21T19:54:34.202Z,99642.32
2019-04-21T19:56:56.103Z,99645.13
2019-04-21T19:59:34.549Z,99643.41
2019-04-21T20:01:58.316Z,99640.63
2019-04-21T20:04:34.363Z,99641.29
2019-04-21T20:07:03.912Z,99635.55
2019-04-21T20:09:40.707Z,99646.38
2019-04-21T20:12:23.838Z,99636.88
2019-04-21T20:15:08.437Z,99642.33
2019-04-21T20:17:09.991Z,99634.13
2019-04-21T20:19:29.988Z,99633.95
2019-04-21T20:21:59.092Z,99637.21
2019-04-21T20:24:30.293Z,99639.59
2019-04-21T20:27:06.937Z,99635.91
2019-04-21T20:29:46.895Z,99631.15
2019-04-21T20:32:24.673Z,99635.17
2019-04-21T20:34:55.629Z,99638.23
2019-04-21T20:37:21.194Z,99635.44
2019-04-21T20:39:39.138Z,99632.59
2019-04-21T20:42:18.117Z,99636.72
2019-04-21T20:44:53.084Z,99631.80
2019-04-21T20:47:11.204Z,99635.08
2019-04-21T20:49:39.720Z,99637.81
2019-04-21T20:52:17.495Z,99636.05
2019-04-21T20:54:45.344Z,99631.44
2019-04-21T20:57:18.405Z,99627.10
2019-04-21T20:59:44.457Z,99621.44
2019-04-21T21:02:20.275Z,99624.81
2019-04-21T21:04:43.413Z,99624.19
2019-04-21T21:07:36.391Z,99621.41
2019-04-21T21:10:03.068Z,99626.62
2019-04-21T21:12:27.800Z,99624.61
2019-04-21T21:14:50.264Z,99626.89
2019-04-21T21:17:44.213Z,99621.39
2019-04-21T21:20:01.612Z,99621.71
2019-04-21T21:22:16.783Z,99619.18
2019-04-21T21:24:50.795Z,99615.55
2019-04-21T21:27:21.033Z,99615.06
2019-04-21T21:29:56.615Z,99608.34
2019-04-21T21:32:26.079Z,99605.77
2019-04-21T21:35:00.899Z,99602.99
2019-04-21T21:37:32.298Z,99604.71
2019-04-21T21:39:57.169Z,99607.23
2019-04-21T21:42:09.880Z,99606.30
2019-04-21T21:44:40.742Z,99605.45
2019-04-21T21:47:22.723Z,99606.13
2019-04-21T21:49:52.702Z,99601.00
2019-04-21T21:52:22.444Z,99603.00
2019-04-21T21:54:40.206Z,99601.25
2019-04-21T21:57:08.351Z,99596.28
2019-04-21T21:59:38.240Z,99593.16
2019-04-21T22:02:09.529Z,99586.27
2019-04-21T22:04:38.930Z,99590.84
2019-04-21T22:07:12.368Z,99590.19
2019-04-21T22:09:36.575Z,99584.95
2019-04-21T22:12:07.211Z,99587.11
2019-04-21T22:14:41.610Z,99582.59
2019-04-21T22:17:21.760Z,99578.90
2019-04-21T22:20:05.267Z,99575.53
2019-04-21T22:22:23.167Z,99574.00
2019-04-21T22:24:50.735Z,99567.97
2019-04-21T22:27:09.425Z,99573.44
2019-04-21T22:29:45.608Z,99571.67
2019-04-21T22:32:15.232Z,99569.45
2019-04-21T22:34:48.651Z,99572.33
2019-04-21T22:37:26.226Z,99575.10
2019-04-21T22:39:53.042Z,99574.46
2019-04-21T22:42:18.946Z,99574.82
2019-04-21T22:44:40.602Z,99578.86
2019-04-21T22:47:16.886Z,99579.22
2019-04-21T22:49:40.951Z,99585.21
2019-04-21T22:52:15.110Z,99575.34
2019-04-21T22:54:42.765Z,99578.73
2019-04-21T22:57:14.694Z,99576.83
2019-04-21T22:59:40.639Z,99575.41
2019-04-21T23:02:16.313Z,99575.27
2019-04-21T23:04:47.557Z,99574.37
2019-04-21T23:07:17.323Z,99571.14
2019-04-21T23:09:45.384Z,99576.56
2019-04-21T23:12:20.439Z,99579.65
2019-04-21T23:14:55.426Z,99580.06
2019-04-21T23:17:32.425Z,99574.42
2019-04-21T23:20:09.966Z,99572.70
2019-04-21T23:22:48.835Z,99577.92
2019-04-21T23:25:07.536Z,99574.70
2019-04-21T23:27:34.212Z,99570.34
2019-04-21T23:30:17.622Z,99569.98
2019-04-21T23:32:30.381Z,99567.75
2019-04-21T23:34:49.113Z,99561.59
2019-04-21T23:37:21.521Z,99561.20
2019-04-21T23:39:54.655Z,99559.52
2019-04-21T23:42:27.220Z,99555.67
2019-04-21T23:44:55.211Z,99553.52
2019-04-21T23:47:37.328Z,99544.44
2019-04-21T23:50:00.457Z,99549.77
2019-04-21T23:52:23.713Z,99546.36
2019-04-21T23:54:53.439Z,99545.56
2019-04-21T23:57:30.279Z,99547.14
2019-04-21T23:59:57.014Z,99541.45
